sensor_id;sensor_type;location;lat;lon;timestamp;P1;durP1;ratioP1;P2;durP2;ratioP2
42662;SDS011;44330;51.360;6.686;2022-11-14T00:02:04;16.33;;;9.20;;
42662;SDS011;44330;51.360;6.686;2022-11-14T00:04:29;16.52;;;9.45;;
42662;SDS011;44330;51.360;6.686;2022-11-14T00:06:55;14.93;;;8.73;;
42662;SDS011;44330;51.360;6.686;2022-11-14T00:09:24;14.90;;;8.85;;
42662;SDS011;44330;51.360;6.686;2022-11-14T00:11:50;17.60;;;9.35;;
42662;SDS011;44330;51.360;6.686;2022-11-14T00:14:16;15.25;;;9.00;;
42662;SDS011;44330;51.360;6.686;2022-11-14T00:16:41;13.63;;;8.60;;
42662;SDS011;44330;51.360;6.686;2022-11-14T00:19:07;14.20;;;8.77;;
42662;SDS011;44330;51.360;6.686;2022-11-14T00:21:32;16.20;;;9.10;;
42662;SDS011;44330;51.360;6.686;2022-11-14T00:23:58;14.63;;;8.52;;
42662;SDS011;44330;51.360;6.686;2022-11-14T00:26:23;13.90;;;8.15;;
42662;SDS011;44330;51.360;6.686;2022-11-14T00:28:49;14.02;;;8.80;;
42662;SDS011;44330;51.360;6.686;2022-11-14T00:31:14;15.27;;;8.88;;
42662;SDS011;44330;51.360;6.686;2022-11-14T00:33:40;13.88;;;8.23;;
42662;SDS011;44330;51.360;6.686;2022-11-14T00:36:05;13.85;;;7.88;;
42662;SDS011;44330;51.360;6.686;2022-11-14T00:38:31;12.60;;;7.47;;
42662;SDS011;44330;51.360;6.686;2022-11-14T00:40:56;13.63;;;7.57;;
42662;SDS011;44330;51.360;6.686;2022-11-14T00:43:22;13.65;;;8.23;;
42662;SDS011;44330;51.360;6.686;2022-11-14T00:45:47;14.35;;;7.90;;
42662;SDS011;44330;51.360;6.686;2022-11-14T00:48:13;12.40;;;8.25;;
42662;SDS011;44330;51.360;6.686;2022-11-14T00:50:39;13.52;;;8.38;;
42662;SDS011;44330;51.360;6.686;2022-11-14T00:53:06;16.17;;;9.05;;
42662;SDS011;44330;51.360;6.686;2022-11-14T00:55:32;15.18;;;8.93;;
42662;SDS011;44330;51.360;6.686;2022-11-14T00:57:57;14.07;;;7.78;;
42662;SDS011;44330;51.360;6.686;2022-11-14T01:00:23;15.68;;;8.02;;
42662;SDS011;44330;51.360;6.686;2022-11-14T01:02:48;15.90;;;9.15;;
42662;SDS011;44330;51.360;6.686;2022-11-14T01:05:14;14.27;;;7.78;;
42662;SDS011;44330;51.360;6.686;2022-11-14T01:07:39;13.02;;;7.40;;
42662;SDS011;44330;51.360;6.686;2022-11-14T01:10:05;14.20;;;7.35;;
42662;SDS011;44330;51.360;6.686;2022-11-14T01:14:59;12.88;;;7.38;;
42662;SDS011;44330;51.360;6.686;2022-11-14T01:17:25;14.65;;;8.05;;
42662;SDS011;44330;51.360;6.686;2022-11-14T01:19:52;14.90;;;7.30;;
42662;SDS011;44330;51.360;6.686;2022-11-14T01:22:18;10.95;;;7.03;;
42662;SDS011;44330;51.360;6.686;2022-11-14T01:24:44;11.40;;;6.95;;
42662;SDS011;44330;51.360;6.686;2022-11-14T01:27:09;14.05;;;7.75;;
42662;SDS011;44330;51.360;6.686;2022-11-14T01:29:35;16.00;;;7.30;;
42662;SDS011;44330;51.360;6.686;2022-11-14T01:32:00;14.00;;;7.47;;
42662;SDS011;44330;51.360;6.686;2022-11-14T01:34:26;12.07;;;6.90;;
42662;SDS011;44330;51.360;6.686;2022-11-14T01:36:53;12.52;;;7.43;;
42662;SDS011;44330;51.360;6.686;2022-11-14T01:39:19;13.27;;;6.78;;
42662;SDS011;44330;51.360;6.686;2022-11-14T01:41:44;12.82;;;7.45;;
42662;SDS011;44330;51.360;6.686;2022-11-14T01:44:11;13.82;;;7.57;;
42662;SDS011;44330;51.360;6.686;2022-11-14T01:46:39;13.98;;;7.05;;
42662;SDS011;44330;51.360;6.686;2022-11-14T01:49:23;11.60;;;6.93;;
42662;SDS011;44330;51.360;6.686;2022-11-14T01:51:54;13.45;;;7.30;;
42662;SDS011;44330;51.360;6.686;2022-11-14T01:54:28;12.77;;;7.35;;
42662;SDS011;44330;51.360;6.686;2022-11-14T01:59:24;12.70;;;7.75;;
42662;SDS011;44330;51.360;6.686;2022-11-14T02:01:55;12.75;;;6.72;;
42662;SDS011;44330;51.360;6.686;2022-11-14T02:04:28;13.90;;;7.68;;
42662;SDS011;44330;51.360;6.686;2022-11-14T02:07:00;16.95;;;8.05;;
42662;SDS011;44330;51.360;6.686;2022-11-14T02:09:29;13.75;;;7.75;;
42662;SDS011;44330;51.360;6.686;2022-11-14T02:11:59;11.77;;;7.68;;
42662;SDS011;44330;51.360;6.686;2022-11-14T02:14:27;15.07;;;7.83;;
42662;SDS011;44330;51.360;6.686;2022-11-14T02:16:56;13.25;;;7.32;;
42662;SDS011;44330;51.360;6.686;2022-11-14T02:19:21;12.23;;;7.53;;
42662;SDS011;44330;51.360;6.686;2022-11-14T02:21:50;17.15;;;8.20;;
42662;SDS011;44330;51.360;6.686;2022-11-14T02:24:16;13.65;;;7.30;;
42662;SDS011;44330;51.360;6.686;2022-11-14T02:26:41;13.05;;;8.30;;
42662;SDS011;44330;51.360;6.686;2022-11-14T02:29:08;15.82;;;7.65;;
42662;SDS011;44330;51.360;6.686;2022-11-14T02:31:35;17.85;;;7.43;;
42662;SDS011;44330;51.360;6.686;2022-11-14T02:34:00;13.60;;;7.35;;
42662;SDS011;44330;51.360;6.686;2022-11-14T02:36:29;14.63;;;8.38;;
42662;SDS011;44330;51.360;6.686;2022-11-14T02:38:54;14.23;;;8.18;;
42662;SDS011;44330;51.360;6.686;2022-11-14T02:41:20;14.05;;;7.82;;
42662;SDS011;44330;51.360;6.686;2022-11-14T02:43:49;14.20;;;8.52;;
42662;SDS011;44330;51.360;6.686;2022-11-14T02:46:14;13.70;;;7.68;;
42662;SDS011;44330;51.360;6.686;2022-11-14T02:48:43;13.77;;;8.30;;
42662;SDS011;44330;51.360;6.686;2022-11-14T02:51:08;11.43;;;7.63;;
42662;SDS011;44330;51.360;6.686;2022-11-14T02:53:37;12.27;;;7.40;;
42662;SDS011;44330;51.360;6.686;2022-11-14T02:56:02;13.65;;;6.63;;
42662;SDS011;44330;51.360;6.686;2022-11-14T02:58:28;16.30;;;8.20;;
42662;SDS011;44330;51.360;6.686;2022-11-14T03:00:54;14.15;;;8.23;;
42662;SDS011;44330;51.360;6.686;2022-11-14T03:03:22;13.73;;;7.50;;
42662;SDS011;44330;51.360;6.686;2022-11-14T03:05:47;11.23;;;5.87;;
42662;SDS011;44330;51.360;6.686;2022-11-14T03:08:16;17.23;;;8.98;;
42662;SDS011;44330;51.360;6.686;2022-11-14T03:10:41;15.93;;;8.77;;
42662;SDS011;44330;51.360;6.686;2022-11-14T03:13:07;12.32;;;6.72;;
42662;SDS011;44330;51.360;6.686;2022-11-14T03:15:35;13.20;;;7.35;;
42662;SDS011;44330;51.360;6.686;2022-11-14T03:20:27;13.80;;;7.20;;
42662;SDS011;44330;51.360;6.686;2022-11-14T03:22:55;13.88;;;7.53;;
42662;SDS011;44330;51.360;6.686;2022-11-14T03:25:22;14.23;;;7.28;;
42662;SDS011;44330;51.360;6.686;2022-11-14T03:27:48;17.45;;;7.93;;
42662;SDS011;44330;51.360;6.686;2022-11-14T03:30:14;15.55;;;7.97;;
42662;SDS011;44330;51.360;6.686;2022-11-14T03:32:42;16.98;;;8.15;;
42662;SDS011;44330;51.360;6.686;2022-11-14T03:35:08;14.60;;;8.10;;
42662;SDS011;44330;51.360;6.686;2022-11-14T03:37:37;15.45;;;8.20;;
42662;SDS011;44330;51.360;6.686;2022-11-14T03:40:02;13.23;;;7.43;;
42662;SDS011;44330;51.360;6.686;2022-11-14T03:42:31;13.75;;;7.30;;
42662;SDS011;44330;51.360;6.686;2022-11-14T03:44:58;12.02;;;7.10;;
42662;SDS011;44330;51.360;6.686;2022-11-14T03:47:23;15.05;;;7.63;;
42662;SDS011;44330;51.360;6.686;2022-11-14T03:49:49;12.30;;;7.40;;
42662;SDS011;44330;51.360;6.686;2022-11-14T03:52:18;12.20;;;6.47;;
42662;SDS011;44330;51.360;6.686;2022-11-14T03:54:43;17.13;;;9.10;;
42662;SDS011;44330;51.360;6.686;2022-11-14T03:57:09;13.05;;;8.13;;
42662;SDS011;44330;51.360;6.686;2022-11-14T03:59:34;16.73;;;8.85;;
42662;SDS011;44330;51.360;6.686;2022-11-14T04:02:00;12.27;;;7.65;;
42662;SDS011;44330;51.360;6.686;2022-11-14T04:04:25;12.77;;;7.43;;
42662;SDS011;44330;51.360;6.686;2022-11-14T04:06:51;14.48;;;7.65;;
42662;SDS011;44330;51.360;6.686;2022-11-14T04:09:16;15.30;;;8.00;;
42662;SDS011;44330;51.360;6.686;2022-11-14T04:11:42;14.68;;;8.05;;
42662;SDS011;44330;51.360;6.686;2022-11-14T04:14:08;18.77;;;7.97;;
42662;SDS011;44330;51.360;6.686;2022-11-14T04:16:34;14.32;;;7.47;;
42662;SDS011;44330;51.360;6.686;2022-11-14T04:18:59;12.50;;;7.10;;
42662;SDS011;44330;51.360;6.686;2022-11-14T04:21:25;11.77;;;7.15;;
42662;SDS011;44330;51.360;6.686;2022-11-14T04:23:50;16.58;;;8.75;;
42662;SDS011;44330;51.360;6.686;2022-11-14T04:26:16;11.50;;;7.70;;
42662;SDS011;44330;51.360;6.686;2022-11-14T04:28:42;12.93;;;7.20;;
42662;SDS011;44330;51.360;6.686;2022-11-14T04:31:07;15.75;;;8.18;;
42662;SDS011;44330;51.360;6.686;2022-11-14T04:33:33;15.43;;;7.82;;
42662;SDS011;44330;51.360;6.686;2022-11-14T04:35:58;15.68;;;8.10;;
42662;SDS011;44330;51.360;6.686;2022-11-14T04:38:24;14.13;;;7.55;;
42662;SDS011;44330;51.360;6.686;2022-11-14T04:40:50;14.15;;;8.35;;
42662;SDS011;44330;51.360;6.686;2022-11-14T04:43:16;15.75;;;8.75;;
42662;SDS011;44330;51.360;6.686;2022-11-14T04:45:43;14.95;;;7.40;;
42662;SDS011;44330;51.360;6.686;2022-11-14T04:48:08;16.40;;;7.57;;
42662;SDS011;44330;51.360;6.686;2022-11-14T04:50:34;15.13;;;7.38;;
42662;SDS011;44330;51.360;6.686;2022-11-14T04:52:59;11.00;;;6.97;;
42662;SDS011;44330;51.360;6.686;2022-11-14T04:55:25;9.35;;;6.63;;
42662;SDS011;44330;51.360;6.686;2022-11-14T04:57:54;11.75;;;6.72;;
42662;SDS011;44330;51.360;6.686;2022-11-14T05:00:21;12.18;;;6.03;;
42662;SDS011;44330;51.360;6.686;2022-11-14T05:02:46;13.07;;;6.30;;
42662;SDS011;44330;51.360;6.686;2022-11-14T05:05:12;15.13;;;5.80;;
42662;SDS011;44330;51.360;6.686;2022-11-14T05:07:37;11.32;;;5.95;;
42662;SDS011;44330;51.360;6.686;2022-11-14T05:10:03;9.90;;;5.78;;
42662;SDS011;44330;51.360;6.686;2022-11-14T05:12:29;10.25;;;5.38;;
42662;SDS011;44330;51.360;6.686;2022-11-14T05:14:55;14.02;;;5.93;;
42662;SDS011;44330;51.360;6.686;2022-11-14T05:17:20;10.55;;;5.78;;
42662;SDS011;44330;51.360;6.686;2022-11-14T05:19:46;9.93;;;5.80;;
42662;SDS011;44330;51.360;6.686;2022-11-14T05:22:12;8.85;;;5.13;;
42662;SDS011;44330;51.360;6.686;2022-11-14T05:24:37;11.80;;;5.72;;
42662;SDS011;44330;51.360;6.686;2022-11-14T05:27:03;10.60;;;5.40;;
42662;SDS011;44330;51.360;6.686;2022-11-14T05:29:28;11.40;;;5.20;;
42662;SDS011;44330;51.360;6.686;2022-11-14T05:31:54;9.73;;;5.18;;
42662;SDS011;44330;51.360;6.686;2022-11-14T05:34:23;7.47;;;4.57;;
42662;SDS011;44330;51.360;6.686;2022-11-14T05:36:49;11.80;;;5.28;;
42662;SDS011;44330;51.360;6.686;2022-11-14T05:39:15;10.52;;;5.43;;
42662;SDS011;44330;51.360;6.686;2022-11-14T05:41:40;10.27;;;5.80;;
42662;SDS011;44330;51.360;6.686;2022-11-14T05:44:06;9.63;;;5.63;;
42662;SDS011;44330;51.360;6.686;2022-11-14T05:46:32;8.25;;;4.97;;
42662;SDS011;44330;51.360;6.686;2022-11-14T05:48:57;10.43;;;5.30;;
42662;SDS011;44330;51.360;6.686;2022-11-14T05:51:24;8.50;;;5.10;;
42662;SDS011;44330;51.360;6.686;2022-11-14T05:53:49;10.68;;;5.80;;
42662;SDS011;44330;51.360;6.686;2022-11-14T05:56:15;12.95;;;5.50;;
42662;SDS011;44330;51.360;6.686;2022-11-14T05:58:40;9.07;;;5.38;;
42662;SDS011;44330;51.360;6.686;2022-11-14T06:01:13;7.93;;;5.60;;
42662;SDS011;44330;51.360;6.686;2022-11-14T06:03:41;10.13;;;5.72;;
42662;SDS011;44330;51.360;6.686;2022-11-14T06:06:09;9.13;;;5.53;;
42662;SDS011;44330;51.360;6.686;2022-11-14T06:08:36;11.90;;;5.63;;
42662;SDS011;44330;51.360;6.686;2022-11-14T06:11:05;12.02;;;6.18;;
42662;SDS011;44330;51.360;6.686;2022-11-14T06:13:37;7.53;;;5.13;;
42662;SDS011;44330;51.360;6.686;2022-11-14T06:16:04;10.68;;;5.72;;
42662;SDS011;44330;51.360;6.686;2022-11-14T06:18:31;14.73;;;6.05;;
42662;SDS011;44330;51.360;6.686;2022-11-14T06:20:58;10.88;;;5.85;;
42662;SDS011;44330;51.360;6.686;2022-11-14T06:23:25;9.93;;;6.03;;
42662;SDS011;44330;51.360;6.686;2022-11-14T06:25:51;14.95;;;5.90;;
42662;SDS011;44330;51.360;6.686;2022-11-14T06:28:16;8.63;;;5.35;;
42662;SDS011;44330;51.360;6.686;2022-11-14T06:30:42;11.52;;;5.90;;
42662;SDS011;44330;51.360;6.686;2022-11-14T06:33:07;9.10;;;5.35;;
42662;SDS011;44330;51.360;6.686;2022-11-14T06:35:33;9.55;;;5.78;;
42662;SDS011;44330;51.360;6.686;2022-11-14T06:37:59;10.18;;;5.82;;
42662;SDS011;44330;51.360;6.686;2022-11-14T06:40:24;9.40;;;5.57;;
42662;SDS011;44330;51.360;6.686;2022-11-14T06:42:50;10.57;;;5.55;;
42662;SDS011;44330;51.360;6.686;2022-11-14T06:45:19;10.70;;;6.22;;
42662;SDS011;44330;51.360;6.686;2022-11-14T06:47:44;11.32;;;6.32;;
42662;SDS011;44330;51.360;6.686;2022-11-14T06:50:10;13.52;;;6.43;;
42662;SDS011;44330;51.360;6.686;2022-11-14T06:52:35;11.40;;;6.47;;
42662;SDS011;44330;51.360;6.686;2022-11-14T06:55:01;12.50;;;6.97;;
42662;SDS011;44330;51.360;6.686;2022-11-14T06:57:26;12.73;;;6.50;;
42662;SDS011;44330;51.360;6.686;2022-11-14T06:59:52;12.45;;;6.65;;
42662;SDS011;44330;51.360;6.686;2022-11-14T07:02:17;11.50;;;6.65;;
42662;SDS011;44330;51.360;6.686;2022-11-14T07:04:43;11.68;;;6.40;;
42662;SDS011;44330;51.360;6.686;2022-11-14T07:07:08;11.43;;;6.50;;
42662;SDS011;44330;51.360;6.686;2022-11-14T07:09:34;10.88;;;6.45;;
42662;SDS011;44330;51.360;6.686;2022-11-14T07:12:00;9.40;;;6.18;;
42662;SDS011;44330;51.360;6.686;2022-11-14T07:14:26;16.85;;;7.60;;
42662;SDS011;44330;51.360;6.686;2022-11-14T07:16:52;16.08;;;7.18;;
42662;SDS011;44330;51.360;6.686;2022-11-14T07:19:18;12.55;;;7.15;;
42662;SDS011;44330;51.360;6.686;2022-11-14T07:21:44;18.02;;;7.70;;
42662;SDS011;44330;51.360;6.686;2022-11-14T07:24:09;13.38;;;7.40;;
42662;SDS011;44330;51.360;6.686;2022-11-14T07:26:35;13.35;;;7.88;;
42662;SDS011;44330;51.360;6.686;2022-11-14T07:29:00;12.63;;;7.85;;
42662;SDS011;44330;51.360;6.686;2022-11-14T07:31:26;16.00;;;8.30;;
42662;SDS011;44330;51.360;6.686;2022-11-14T07:33:52;17.20;;;7.82;;
42662;SDS011;44330;51.360;6.686;2022-11-14T07:36:18;26.15;;;8.48;;
42662;SDS011;44330;51.360;6.686;2022-11-14T07:38:44;16.30;;;8.55;;
42662;SDS011;44330;51.360;6.686;2022-11-14T07:41:11;16.48;;;8.07;;
42662;SDS011;44330;51.360;6.686;2022-11-14T07:43:38;15.97;;;8.47;;
42662;SDS011;44330;51.360;6.686;2022-11-14T07:46:05;14.75;;;8.00;;
42662;SDS011;44330;51.360;6.686;2022-11-14T07:48:32;13.32;;;7.55;;
42662;SDS011;44330;51.360;6.686;2022-11-14T07:51:02;13.82;;;8.07;;
42662;SDS011;44330;51.360;6.686;2022-11-14T07:53:29;17.95;;;9.48;;
42662;SDS011;44330;51.360;6.686;2022-11-14T07:55:56;16.35;;;9.13;;
42662;SDS011;44330;51.360;6.686;2022-11-14T07:58:25;18.90;;;10.40;;
42662;SDS011;44330;51.360;6.686;2022-11-14T08:00:51;18.48;;;10.55;;
42662;SDS011;44330;51.360;6.686;2022-11-14T08:03:20;20.67;;;11.68;;
42662;SDS011;44330;51.360;6.686;2022-11-14T08:05:45;22.50;;;12.05;;
42662;SDS011;44330;51.360;6.686;2022-11-14T08:08:11;24.30;;;12.35;;
42662;SDS011;44330;51.360;6.686;2022-11-14T08:10:36;21.70;;;11.60;;
42662;SDS011;44330;51.360;6.686;2022-11-14T08:13:03;29.23;;;13.80;;
42662;SDS011;44330;51.360;6.686;2022-11-14T08:15:32;23.40;;;12.73;;
42662;SDS011;44330;51.360;6.686;2022-11-14T08:17:58;21.58;;;11.60;;
42662;SDS011;44330;51.360;6.686;2022-11-14T08:20:26;21.60;;;12.77;;
42662;SDS011;44330;51.360;6.686;2022-11-14T08:23:01;23.02;;;12.98;;
42662;SDS011;44330;51.360;6.686;2022-11-14T08:25:28;21.98;;;12.63;;
42662;SDS011;44330;51.360;6.686;2022-11-14T08:27:53;27.50;;;14.10;;
42662;SDS011;44330;51.360;6.686;2022-11-14T08:30:19;23.08;;;13.23;;
42662;SDS011;44330;51.360;6.686;2022-11-14T08:32:45;28.30;;;14.10;;
42662;SDS011;44330;51.360;6.686;2022-11-14T08:35:10;26.13;;;13.82;;
42662;SDS011;44330;51.360;6.686;2022-11-14T08:37:36;30.08;;;15.43;;
42662;SDS011;44330;51.360;6.686;2022-11-14T08:40:01;30.88;;;15.55;;
42662;SDS011;44330;51.360;6.686;2022-11-14T08:42:27;28.77;;;15.82;;
42662;SDS011;44330;51.360;6.686;2022-11-14T08:44:53;28.15;;;14.82;;
42662;SDS011;44330;51.360;6.686;2022-11-14T08:47:18;34.97;;;16.80;;
42662;SDS011;44330;51.360;6.686;2022-11-14T08:49:44;35.88;;;16.60;;
42662;SDS011;44330;51.360;6.686;2022-11-14T08:52:09;28.98;;;15.23;;
42662;SDS011;44330;51.360;6.686;2022-11-14T08:54:35;34.35;;;16.75;;
42662;SDS011;44330;51.360;6.686;2022-11-14T08:57:00;31.95;;;15.48;;
42662;SDS011;44330;51.360;6.686;2022-11-14T08:59:26;33.08;;;16.17;;
42662;SDS011;44330;51.360;6.686;2022-11-14T09:01:51;30.60;;;15.27;;
42662;SDS011;44330;51.360;6.686;2022-11-14T09:04:17;30.95;;;15.38;;
42662;SDS011;44330;51.360;6.686;2022-11-14T09:06:42;30.40;;;15.02;;
42662;SDS011;44330;51.360;6.686;2022-11-14T09:09:10;30.85;;;14.77;;
42662;SDS011;44330;51.360;6.686;2022-11-14T09:11:35;32.50;;;15.57;;
42662;SDS011;44330;51.360;6.686;2022-11-14T09:14:04;28.83;;;15.35;;
42662;SDS011;44330;51.360;6.686;2022-11-14T09:16:30;31.67;;;16.42;;
42662;SDS011;44330;51.360;6.686;2022-11-14T09:18:55;31.23;;;16.55;;
42662;SDS011;44330;51.360;6.686;2022-11-14T09:21:21;35.22;;;16.17;;
42662;SDS011;44330;51.360;6.686;2022-11-14T09:23:46;33.72;;;15.57;;
42662;SDS011;44330;51.360;6.686;2022-11-14T09:26:12;31.80;;;15.50;;
42662;SDS011;44330;51.360;6.686;2022-11-14T09:28:38;34.03;;;16.17;;
42662;SDS011;44330;51.360;6.686;2022-11-14T09:31:05;29.73;;;15.52;;
42662;SDS011;44330;51.360;6.686;2022-11-14T09:33:32;35.27;;;16.67;;
42662;SDS011;44330;51.360;6.686;2022-11-14T09:35:59;32.38;;;15.52;;
42662;SDS011;44330;51.360;6.686;2022-11-14T09:38:27;27.50;;;14.95;;
42662;SDS011;44330;51.360;6.686;2022-11-14T09:46:03;31.45;;;15.63;;
42662;SDS011;44330;51.360;6.686;2022-11-14T09:48:36;31.27;;;15.35;;
42662;SDS011;44330;51.360;6.686;2022-11-14T09:51:06;33.50;;;15.25;;
42662;SDS011;44330;51.360;6.686;2022-11-14T09:56:18;31.25;;;15.25;;
42662;SDS011;44330;51.360;6.686;2022-11-14T09:58:46;32.42;;;16.17;;
42662;SDS011;44330;51.360;6.686;2022-11-14T10:01:28;30.05;;;15.57;;
42662;SDS011;44330;51.360;6.686;2022-11-14T10:04:02;33.03;;;16.00;;
42662;SDS011;44330;51.360;6.686;2022-11-14T10:15:05;29.42;;;14.65;;
42662;SDS011;44330;51.360;6.686;2022-11-14T10:26:27;29.90;;;15.25;;
42662;SDS011;44330;51.360;6.686;2022-11-14T10:34:38;25.88;;;12.85;;
42662;SDS011;44330;51.360;6.686;2022-11-14T10:37:19;23.27;;;12.43;;
42662;SDS011;44330;51.360;6.686;2022-11-14T10:40:02;24.15;;;12.07;;
42662;SDS011;44330;51.360;6.686;2022-11-14T10:42:42;24.50;;;12.32;;
42662;SDS011;44330;51.360;6.686;2022-11-14T10:47:50;21.17;;;11.95;;
42662;SDS011;44330;51.360;6.686;2022-11-14T10:50:21;19.65;;;10.43;;
42662;SDS011;44330;51.360;6.686;2022-11-14T10:52:51;23.25;;;11.63;;
42662;SDS011;44330;51.360;6.686;2022-11-14T10:55:21;20.88;;;10.75;;
42662;SDS011;44330;51.360;6.686;2022-11-14T10:57:49;22.67;;;10.82;;
42662;SDS011;44330;51.360;6.686;2022-11-14T11:00:15;18.88;;;9.68;;
42662;SDS011;44330;51.360;6.686;2022-11-14T11:02:51;22.02;;;10.70;;
42662;SDS011;44330;51.360;6.686;2022-11-14T11:05:19;17.10;;;9.57;;
42662;SDS011;44330;51.360;6.686;2022-11-14T11:07:46;17.63;;;9.32;;
42662;SDS011;44330;51.360;6.686;2022-11-14T11:10:33;17.13;;;9.45;;
42662;SDS011;44330;51.360;6.686;2022-11-14T11:13:31;16.48;;;9.90;;
42662;SDS011;44330;51.360;6.686;2022-11-14T11:16:00;15.82;;;9.20;;
42662;SDS011;44330;51.360;6.686;2022-11-14T11:21:02;19.95;;;10.27;;
42662;SDS011;44330;51.360;6.686;2022-11-14T11:23:36;20.38;;;10.63;;
42662;SDS011;44330;51.360;6.686;2022-11-14T11:26:26;20.60;;;11.02;;
42662;SDS011;44330;51.360;6.686;2022-11-14T11:29:07;18.88;;;10.43;;
42662;SDS011;44330;51.360;6.686;2022-11-14T11:34:35;20.85;;;10.65;;
42662;SDS011;44330;51.360;6.686;2022-11-14T11:37:20;19.55;;;11.20;;
42662;SDS011;44330;51.360;6.686;2022-11-14T11:40:04;21.00;;;11.13;;
42662;SDS011;44330;51.360;6.686;2022-11-14T11:42:33;21.15;;;11.52;;
42662;SDS011;44330;51.360;6.686;2022-11-14T11:45:04;18.92;;;10.80;;
42662;SDS011;44330;51.360;6.686;2022-11-14T11:47:37;21.35;;;11.35;;
42662;SDS011;44330;51.360;6.686;2022-11-14T11:50:10;20.10;;;10.77;;
42662;SDS011;44330;51.360;6.686;2022-11-14T11:52:42;19.75;;;10.57;;
42662;SDS011;44330;51.360;6.686;2022-11-14T12:00:27;22.67;;;12.43;;
42662;SDS011;44330;51.360;6.686;2022-11-14T12:02:53;23.40;;;12.35;;
42662;SDS011;44330;51.360;6.686;2022-11-14T12:08:02;21.67;;;12.20;;
42662;SDS011;44330;51.360;6.686;2022-11-14T12:10:32;19.83;;;11.52;;
42662;SDS011;44330;51.360;6.686;2022-11-14T12:30:24;20.95;;;11.70;;
42662;SDS011;44330;51.360;6.686;2022-11-14T12:33:11;24.10;;;11.88;;
42662;SDS011;44330;51.360;6.686;2022-11-14T12:35:55;20.65;;;12.07;;
42662;SDS011;44330;51.360;6.686;2022-11-14T12:38:28;16.58;;;9.25;;
42662;SDS011;44330;51.360;6.686;2022-11-14T12:40:59;26.42;;;12.07;;
42662;SDS011;44330;51.360;6.686;2022-11-14T12:43:36;20.45;;;11.48;;
42662;SDS011;44330;51.360;6.686;2022-11-14T12:46:09;20.88;;;11.43;;
42662;SDS011;44330;51.360;6.686;2022-11-14T12:48:40;21.67;;;12.43;;
42662;SDS011;44330;51.360;6.686;2022-11-14T12:53:54;22.70;;;11.73;;
42662;SDS011;44330;51.360;6.686;2022-11-14T13:10:11;17.42;;;10.70;;
42662;SDS011;44330;51.360;6.686;2022-11-14T13:12:34;20.45;;;11.82;;
42662;SDS011;44330;51.360;6.686;2022-11-14T13:18:28;20.92;;;11.55;;
42662;SDS011;44330;51.360;6.686;2022-11-14T13:24:00;21.45;;;11.27;;
42662;SDS011;44330;51.360;6.686;2022-11-14T13:28:51;22.10;;;11.13;;
42662;SDS011;44330;51.360;6.686;2022-11-14T13:31:24;20.27;;;11.23;;
42662;SDS011;44330;51.360;6.686;2022-11-14T13:33:57;19.35;;;11.25;;
42662;SDS011;44330;51.360;6.686;2022-11-14T13:44:36;22.38;;;12.48;;
42662;SDS011;44330;51.360;6.686;2022-11-14T13:50:33;22.80;;;12.13;;
42662;SDS011;44330;51.360;6.686;2022-11-14T13:53:01;23.52;;;12.88;;
42662;SDS011;44330;51.360;6.686;2022-11-14T14:03:57;23.73;;;13.27;;
42662;SDS011;44330;51.360;6.686;2022-11-14T14:06:41;25.48;;;13.68;;
42662;SDS011;44330;51.360;6.686;2022-11-14T14:17:14;25.73;;;13.45;;
42662;SDS011;44330;51.360;6.686;2022-11-14T14:25:29;27.00;;;13.80;;
42662;SDS011;44330;51.360;6.686;2022-11-14T14:28:10;25.25;;;12.75;;
42662;SDS011;44330;51.360;6.686;2022-11-14T14:31:02;21.42;;;12.18;;
42662;SDS011;44330;51.360;6.686;2022-11-14T14:33:38;22.48;;;12.52;;
42662;SDS011;44330;51.360;6.686;2022-11-14T14:36:14;25.65;;;13.43;;
42662;SDS011;44330;51.360;6.686;2022-11-14T14:38:45;23.08;;;12.13;;
42662;SDS011;44330;51.360;6.686;2022-11-14T14:41:11;21.08;;;12.60;;
42662;SDS011;44330;51.360;6.686;2022-11-14T14:43:39;24.67;;;14.13;;
42662;SDS011;44330;51.360;6.686;2022-11-14T14:46:06;25.35;;;13.52;;
42662;SDS011;44330;51.360;6.686;2022-11-14T14:48:32;25.25;;;13.50;;
42662;SDS011;44330;51.360;6.686;2022-11-14T14:51:00;23.55;;;13.88;;
42662;SDS011;44330;51.360;6.686;2022-11-14T14:53:31;33.50;;;14.23;;
42662;SDS011;44330;51.360;6.686;2022-11-14T14:56:03;19.80;;;10.52;;
42662;SDS011;44330;51.360;6.686;2022-11-14T14:58:31;23.65;;;14.18;;
42662;SDS011;44330;51.360;6.686;2022-11-14T15:03:30;26.90;;;14.02;;
42662;SDS011;44330;51.360;6.686;2022-11-14T15:08:57;25.90;;;13.05;;
42662;SDS011;44330;51.360;6.686;2022-11-14T15:11:26;25.02;;;14.05;;
42662;SDS011;44330;51.360;6.686;2022-11-14T15:13:53;26.23;;;14.00;;
42662;SDS011;44330;51.360;6.686;2022-11-14T15:16:21;22.92;;;13.50;;
42662;SDS011;44330;51.360;6.686;2022-11-14T15:18:48;24.20;;;13.55;;
42662;SDS011;44330;51.360;6.686;2022-11-14T15:21:28;29.38;;;14.80;;
42662;SDS011;44330;51.360;6.686;2022-11-14T15:24:01;21.63;;;13.52;;
42662;SDS011;44330;51.360;6.686;2022-11-14T15:26:44;22.73;;;13.68;;
42662;SDS011;44330;51.360;6.686;2022-11-14T15:29:17;25.65;;;14.15;;
42662;SDS011;44330;51.360;6.686;2022-11-14T15:31:45;22.95;;;13.65;;
42662;SDS011;44330;51.360;6.686;2022-11-14T15:39:39;27.88;;;14.10;;
42662;SDS011;44330;51.360;6.686;2022-11-14T15:42:18;29.40;;;15.07;;
42662;SDS011;44330;51.360;6.686;2022-11-14T15:44:45;25.48;;;14.55;;
42662;SDS011;44330;51.360;6.686;2022-11-14T15:47:23;23.70;;;13.82;;
42662;SDS011;44330;51.360;6.686;2022-11-14T15:50:21;26.30;;;13.85;;
42662;SDS011;44330;51.360;6.686;2022-11-14T15:52:58;27.95;;;14.75;;
42662;SDS011;44330;51.360;6.686;2022-11-14T15:55:27;23.10;;;13.73;;
42662;SDS011;44330;51.360;6.686;2022-11-14T15:57:52;28.45;;;15.05;;
42662;SDS011;44330;51.360;6.686;2022-11-14T16:00:18;28.58;;;14.93;;
42662;SDS011;44330;51.360;6.686;2022-11-14T16:02:51;27.10;;;14.70;;
42662;SDS011;44330;51.360;6.686;2022-11-14T16:05:24;26.27;;;14.63;;
42662;SDS011;44330;51.360;6.686;2022-11-14T16:07:53;23.15;;;13.10;;
42662;SDS011;44330;51.360;6.686;2022-11-14T16:10:19;28.17;;;15.30;;
42662;SDS011;44330;51.360;6.686;2022-11-14T16:12:49;24.33;;;14.38;;
42662;SDS011;44330;51.360;6.686;2022-11-14T16:15:16;25.67;;;14.48;;
42662;SDS011;44330;51.360;6.686;2022-11-14T16:17:43;28.13;;;14.65;;
42662;SDS011;44330;51.360;6.686;2022-11-14T16:20:14;25.15;;;14.05;;
42662;SDS011;44330;51.360;6.686;2022-11-14T16:22:43;25.05;;;14.27;;
42662;SDS011;44330;51.360;6.686;2022-11-14T16:25:16;22.40;;;14.05;;
42662;SDS011;44330;51.360;6.686;2022-11-14T16:27:46;23.83;;;13.60;;
42662;SDS011;44330;51.360;6.686;2022-11-14T16:30:13;26.02;;;13.90;;
42662;SDS011;44330;51.360;6.686;2022-11-14T16:37:37;31.40;;;13.80;;
42662;SDS011;44330;51.360;6.686;2022-11-14T16:40:02;27.42;;;14.23;;
42662;SDS011;44330;51.360;6.686;2022-11-14T16:42:28;24.05;;;13.43;;
42662;SDS011;44330;51.360;6.686;2022-11-14T16:44:58;25.13;;;13.80;;
42662;SDS011;44330;51.360;6.686;2022-11-14T16:47:25;24.40;;;14.32;;
42662;SDS011;44330;51.360;6.686;2022-11-14T16:49:51;22.80;;;13.35;;
42662;SDS011;44330;51.360;6.686;2022-11-14T16:52:16;24.85;;;14.60;;
42662;SDS011;44330;51.360;6.686;2022-11-14T16:54:43;24.67;;;13.77;;
42662;SDS011;44330;51.360;6.686;2022-11-14T16:57:08;28.20;;;13.82;;
42662;SDS011;44330;51.360;6.686;2022-11-14T16:59:34;24.10;;;13.98;;
42662;SDS011;44330;51.360;6.686;2022-11-14T17:01:59;27.23;;;14.45;;